Arctic Village, AK

5:58 AM AKDT on July 23, 2014 (GMT -0800)
Arctic Village (PARC) Elev 2090 ft | 68.11 °N, 145.58 °W | Change Station
Active Advisory: Special Statement

Current weather conditions updated 2 minutes ago

Overcast
Overcast
46 °F
Feels Like 46 °F
N
0
Wind Variable Wind from North

Today is forecast to be Warmer than yesterday. Morning showers.

Today
High -- | Low -- °F
--% Chance of Precip.
Yesterday
High -- | Low -- °F
Precip. -- in
3:01 AM 0:29 AM
Waning Crescent, 10% visible
Pressure 29.71 in
Visibility 10.0 miles
Clouds Overcast 1400 ft
Dew Point 46 °F
Humidity 100%
Rainfall 0.00 in
Snow Depth Not available.
UV 0 out of 12
Pollen Not available.
Air Quality Not available.
Flu Activity Not available.
METAR PARC 231356Z AUTO 00000KT 10SM OVC014 08/08 A2971 RMK AO1

More Conditions Fewer Conditions

Pressure 29.71 in
Visibility 10.0 miles
Clouds Overcast 1400 ft
Dew Point 46 °F
Humidity 100%
Rainfall 0.00 in
Snow Depth Not available.
UV 0 out of 12
Pollen Not available.
Air Quality Not available.
Flu Activity Not available.
METAR PARC 231356Z AUTO 00000KT 10SM OVC014 08/08 A2971 RMK AO1

More Conditions Fewer Conditions

10-Day Weather Forecast

Almanac

Astronomy

Jul. 23, 2014 Rise Set
Actual Time 3:01 AM AKDT 12:29 AM AKDT
Civil Twilight Sun does not rise Sun does not rise
Nautical Twilight Sun does not rise Sun does not rise
Astronomical Twilight Sun does not rise Sun does not rise
Moon 1:07 AM AKDT 9:30 PM AKDT
Length of Visible Light 24h 00m
Length of Day
21h 28m
Tomorrow will be 14m 6s shorter.
Waning Crescent, 10% of the Moon is Illuminated
Today
Waning Crescent
Jul 26
New
Aug 3
First Quarter
Aug 10
Full
Aug 17
Last Quarter

Today's Extremes

State Highs State Lows

Community

WunderPhotos

Upload Photos

1,736,594 photos uploaded!

Nearby

Snow Depth

Station Depth Elevation
Atigun Pass 0 in 4800 ft
Fort Yukon 3 in 430 ft
Coldfoot 1 in 1040 ft
Gobblers Knob 0 in 2030 ft
Eagle Summit 75 in 3650 ft

Earthquake Activity

City Distance Mag. Time & Date
No recent earthquake activity has been reported nearby.
Minimum magnitude displayed is 2.5.

Coastal Water Temperatures

Place Temperature
No Stations Reporting

Nearby Weather Stations

There are no personal weather stations in this area.